Latest Weather Observations for Coolangatta

IDN60801

Issued at 2:02 am EDT Sunday 14 February 2016 (issued every 30 minutes, with the page automatically refreshed every 10 minutes)

About weather observations | Map of weather stations | Latest weather observations for NSW | Other Formats
Station Details ID: 040717 Name: COOLANGATTA Lat: -28.17 Lon: 153.51 Height: 4.0 m
Data from the previous 72 hours. | See also: Recent months at Coolangatta
Date/Time
EDT
Temp
°C
App
Temp
°C
Dew
Point
Rel
Hum
%
Delta-T
°C
Wind Press
QNH
hPa
Press
MSL
hPa
Rain
since 9 am
mm
Dir
 
Spd
km/h
Gust
km/h
Spd
kts
Gust
kts
14/02:00am 22.2 22.2 18.2 78 2.5 SSW 15 20 8 11 1009.3 1009.2 1.2
14/01:30am 22.0 22.3 18.0 78 2.5 S 13 19 7 10 1009.6 1009.5 1.2
14/01:00am 22.2 22.2 18.2 78 2.5 SSW 15 20 8 11 1010.0 1009.9 1.2
14/12:30am 22.4 22.1 18.2 77 2.6 SSW 17 26 9 14 1010.2 1010.1 1.2
14/12:00am 22.4 22.4 18.2 77 2.6 SSW 15 20 8 11 1010.4 1010.3 1.2
 
Date/Time
EDT
Temp
°C
App
Temp
°C
Dew
Point
Rel
Hum
%
Delta-T
°C
Wind Press
QNH
hPa
Press
MSL
hPa
Rain
since 9 am
mm
Dir
 
Spd
km/h
Gust
km/h
Spd
kts
Gust
kts
13/11:30pm 22.8 22.5 18.3 76 2.8 S 17 24 9 13 1010.5 1010.4 1.2
13/11:00pm 22.5 22.1 18.1 76 2.7 SSW 17 24 9 13 1010.6 1010.5 1.2
13/10:30pm 22.7 22.7 18.0 75 2.9 SSW 15 24 8 13 1010.8 1010.7 1.2
13/10:00pm 22.6 22.1 17.7 74 3.0 SSW 17 24 9 13 1011.0 1010.9 1.2
13/09:30pm 22.6 22.4 17.7 74 3.0 SSW 15 20 8 11 1011.1 1011.0 1.2
13/09:00pm 22.8 22.6 17.7 73 3.2 S 15 20 8 11 1011.1 1011.0 1.2
13/08:30pm 23.1 22.7 18.0 73 3.2 S 17 24 9 13 1010.8 1010.7 1.2
13/08:00pm 23.6 23.2 18.0 71 3.5 S 17 26 9 14 1010.6 1010.5 1.2
13/07:30pm 23.9 22.6 18.1 70 3.6 S 22 33 12 18 1010.3 1010.2 1.2
13/07:00pm 24.4 22.7 18.1 68 4.0 SSE 24 39 13 21 1010.1 1010.0 1.2
13/06:30pm 25.1 22.7 18.3 66 4.3 SSE 28 37 15 20 1009.9 1009.8 1.2
13/06:00pm 25.1 22.0 18.5 67 4.2 SSE 32 43 17 23 1009.9 1009.8 1.2
13/05:30pm 26.2 23.4 19.1 65 4.6 SE 32 50 17 27 1009.9 1009.8 1.2
13/05:00pm 25.4 22.6 19.1 68 4.0 SSE 32 44 17 24 1009.9 1009.8 1.2
13/04:35pm 26.7 23.7 19.1 63 4.9 SSE 33 52 18 28 1009.9 1009.8 1.2
13/04:30pm 26.5 22.7 18.9 63 4.9 SE 37 52 20 28 1009.9 1009.8 1.2
13/04:00pm 25.8 21.9 18.7 65 4.5 SE 37 50 20 27 1010.0 1009.9 1.2
13/03:30pm 26.5 23.3 18.6 62 5.0 SSE 33 44 18 24 1010.2 1010.1 1.2
13/03:00pm 26.1 23.3 19.0 65 4.6 SSE 32 43 17 23 1010.3 1010.2 1.2
13/02:41pm 27.2 24.5 19.3 62 5.1 SSE 32 50 17 27 1010.5 1010.4 1.2
13/02:30pm 27.5 24.5 19.0 59 5.5 SSE 33 46 18 25 1010.7 1010.6 1.2
13/02:00pm 26.2 24.3 19.3 65 4.4 SSE 28 37 15 20 1011.1 1011.0 1.2
13/01:30pm 26.5 24.3 19.6 66 4.5 SE 30 43 16 23 1011.4 1011.3 1.2
13/01:00pm 27.0 25.6 21.1 70 3.9 SE 30 44 16 24 1011.3 1011.2 1.2
13/12:47pm 25.7 26.1 22.4 82 2.2 SSE 24 30 13 16 1011.5 1011.4 1.2
13/12:30pm 23.3 22.5 20.8 86 1.6 SSE 26 41 14 22 1011.8 1011.7 1.2
13/12:27pm 23.5 23.0 20.8 85 1.8 SSE 24 41 13 22 1011.9 1011.8 1.2
13/12:21pm 23.3 24.5 21.4 89 1.3 SSE 17 24 9 13 1011.9 1011.8 1.2
13/12:00pm 22.1 20.7 20.4 90 1.1 SSE 28 43 15 23 1012.1 1012.0 1.0
13/11:48am 22.4 21.1 20.7 90 1.1 S 28 43 15 23 1012.1 1012.0 0.8
13/11:30am 22.9 22.7 20.6 87 1.5 S 22 37 12 20 1012.0 1011.9 0.4
13/11:00am 24.4 25.0 21.3 83 2.0 S 20 33 11 18 1012.0 1011.9 0.2
13/10:32am 22.8 23.2 20.7 88 1.4 S 19 28 10 15 1012.2 1012.1 0.2
13/10:30am 22.8 23.2 20.7 88 1.4 S 19 28 10 15 1012.2 1012.1 0.2
13/10:20am 22.6 23.0 20.7 89 1.2 S 19 28 10 15 1012.2 1012.1 0.2
13/10:00am 22.4 22.8 19.8 85 1.7 S 17 24 9 13 1012.1 1012.0 0.0
13/09:30am 23.2 22.6 19.8 81 2.2 S 22 33 12 18 1012.2 1012.1 0.0
13/09:00am 23.2 23.1 18.7 76 2.8 S 17 24 9 13 1012.0 1011.9 0.0
13/08:30am 23.4 22.5 18.3 73 3.2 S 20 30 11 16 1011.6 1011.5 0.0
13/08:00am 22.7 21.8 18.3 76 2.8 SSW 20 30 11 16 1011.5 1011.4 0.0
13/07:30am 23.2 22.3 18.1 73 3.2 SSW 20 30 11 16 1011.1 1011.0 0.0
13/07:00am 22.4 21.3 17.8 75 2.9 SSW 20 30 11 16 1011.2 1011.1 0.0
13/06:30am 22.1 20.9 17.5 75 2.8 SSW 20 30 11 16 1011.1 1011.0 0.0
13/06:00am 22.1 21.2 17.7 76 2.7 S 19 26 10 14 1011.1 1011.0 0.0
13/05:30am 22.1 21.6 17.7 76 2.7 SSW 17 24 9 13 1011.0 1010.9 0.0
13/05:00am 22.2 21.4 18.0 77 2.6 SSW 19 28 10 15 1010.8 1010.7 0.0
13/04:30am 22.0 21.7 18.2 79 2.4 S 17 24 9 13 1010.9 1010.8 0.0
13/04:00am 22.3 22.0 18.3 78 2.5 S 17 26 9 14 1011.1 1011.0 0.0
13/03:30am 22.2 21.9 18.2 78 2.5 SSW 17 26 9 14 1011.2 1011.1 0.0
13/03:00am 22.3 21.7 18.5 79 2.4 S 19 28 10 15 1011.2 1011.1 0.0
13/02:30am 22.4 22.2 18.4 78 2.5 S 17 24 9 13 1011.4 1011.3 0.0
13/02:00am 22.4 22.2 18.4 78 2.5 S 17 22 9 12 1011.7 1011.6 0.0
13/01:30am 22.3 22.4 18.3 78 2.5 S 15 22 8 12 1012.2 1012.1 0.0
13/01:00am 22.2 22.2 18.0 77 2.6 S 15 20 8 11 1012.5 1012.4 0.0
13/12:30am 22.2 22.7 18.4 79 2.4 S 13 19 7 10 1012.9 1012.8 0.0
13/12:00am 22.6 22.3 18.2 76 2.8 S 17 22 9 12 1013.2 1013.1 0.0
 
Date/Time
EDT
Temp
°C
App
Temp
°C
Dew
Point
Rel
Hum
%
Delta-T
°C
Wind Press
QNH
hPa
Press
MSL
hPa
Rain
since 9 am
mm
Dir
 
Spd
km/h
Gust
km/h
Spd
kts
Gust
kts
12/11:30pm 22.8 22.4 18.1 75 2.9 SSW 17 22 9 12 1013.3 1013.2 0.0
12/11:00pm 22.8 22.9 18.3 76 2.8 SSW 15 24 8 13 1013.6 1013.5 0.0
12/10:30pm 22.8 22.5 18.3 76 2.8 SSW 17 22 9 12 1013.6 1013.5 0.0
12/10:00pm 22.9 22.9 18.2 75 2.9 S 15 24 8 13 1013.7 1013.6 0.0
12/09:30pm 23.4 23.1 18.3 73 3.2 SSW 17 20 9 11 1013.7 1013.6 0.0
12/09:00pm 23.9 23.7 18.5 72 3.4 S 17 22 9 12 1013.6 1013.5 0.0
12/08:30pm 24.0 23.3 18.2 70 3.6 S 19 24 10 13 1013.5 1013.4 0.0
12/08:00pm 24.5 23.7 18.4 69 3.9 SSE 20 28 11 15 1013.5 1013.4 0.0
12/07:30pm 24.4 23.5 18.1 68 4.0 SSE 20 33 11 18 1013.2 1013.1 0.0
12/07:00pm 25.3 23.2 18.0 64 4.6 SSE 26 37 14 20 1013.0 1012.9 0.0
12/06:30pm 25.3 22.7 17.7 62 4.8 SSE 28 41 15 22 1012.7 1012.6 0.0
12/06:00pm 25.5 22.1 18.2 64 4.6 SE 33 43 18 23 1012.5 1012.4 0.0
12/05:30pm 26.1 23.0 18.5 63 4.8 SSE 32 44 17 24 1012.4 1012.3 0.0
12/05:00pm 26.0 22.6 17.6 60 5.3 SSE 32 44 17 24 1012.5 1012.4 0.0
12/04:30pm 26.5 22.5 17.6 58 5.6 SSE 35 48 19 26 1012.4 1012.3 0.0
12/04:13pm 27.0 24.4 17.8 57 5.8 SSE 28 46 15 25 1012.6 1012.5 0.0
12/04:00pm 27.4 24.6 18.1 57 5.9 SSE 30 43 16 23 1012.5 1012.4 0.0
12/03:45pm 27.7 24.5 18.1 56 6.1 SSE 32 50 17 27 1012.6 1012.5 0.0
12/03:30pm 26.7 22.8 17.8 58 5.6 SSE 35 50 19 27 1012.5 1012.4 0.0
12/03:00pm 26.4 22.7 18.3 61 5.1 SSE 35 50 19 27 1012.5 1012.4 0.0
12/02:41pm 27.2 23.7 17.9 56 5.9 SE 33 52 18 28 1012.6 1012.5 0.0
12/02:30pm 27.4 24.1 18.4 58 5.7 SSE 33 44 18 24 1012.6 1012.5 0.0
12/02:00pm 26.9 23.8 18.5 60 5.4 SE 32 46 17 25 1012.6 1012.5 0.0
12/01:30pm 26.4 22.4 18.5 62 5.0 SE 37 48 20 26 1012.9 1012.8 0.0
12/01:00pm 27.8 24.6 18.5 57 5.9 SE 33 48 18 26 1013.0 1012.9 0.0
12/12:52pm 28.0 25.3 18.4 56 6.1 SE 30 48 16 26 1013.1 1013.0 0.0
12/12:30pm 27.8 25.2 19.8 61 5.2 SSE 33 44 18 24 1013.2 1013.1 0.0
12/12:00pm 27.3 23.6 18.3 58 5.7 SE 35 46 19 25 1013.5 1013.4 0.0
12/11:30am 26.8 23.6 18.6 60 5.2 SE 33 44 18 24 1013.5 1013.4 0.0
12/11:00am 27.3 24.1 18.6 59 5.6 SE 33 43 18 23 1013.8 1013.7 0.0
12/10:30am 27.4 24.5 18.9 59 5.5 SE 32 43 17 23 1013.7 1013.6 0.0
12/10:00am 25.7 23.1 18.6 65 4.5 SE 30 39 16 21 1013.7 1013.6 0.6
12/09:30am 25.0 26.0 20.3 75 3.1 S 15 20 8 11 1013.7 1013.6 0.6
12/09:00am 24.1 24.2 20.0 78 2.6 S 19 24 10 13 1013.9 1013.8 0.6
12/08:30am 23.7 24.3 19.4 77 2.8 SSW 15 22 8 12 1013.7 1013.6 0.6
12/08:00am 21.7 23.1 18.7 83 1.9 SSW 9 13 5 7 1013.6 1013.5 0.6
12/07:30am 21.5 22.5 18.7 84 1.8 S 11 19 6 10 1013.3 1013.2 0.6
12/07:00am 21.2 21.6 18.2 83 1.9 SSW 13 20 7 11 1013.3 1013.2 0.6
12/06:30am 21.1 21.6 18.3 84 1.7 SSW 13 20 7 11 1013.1 1013.0 0.6
12/06:00am 21.2 21.5 18.8 86 1.5 SSW 15 22 8 12 1012.9 1012.8 0.6
12/05:30am 21.0 21.7 18.8 87 1.4 SSW 13 17 7 9 1012.7 1012.6 0.6
12/05:00am 21.0 22.1 18.8 87 1.4 SSW 11 15 6 8 1012.6 1012.5 0.6
12/04:30am 21.2 22.0 19.1 88 1.3 SSW 13 20 7 11 1012.6 1012.5 0.6
12/04:00am 21.3 21.3 19.0 87 1.5 SSW 17 26 9 14 1012.7 1012.6 0.6
12/03:30am 21.9 22.6 18.9 83 1.9 SSW 13 17 7 9 1012.7 1012.6 0.0
12/03:00am 22.0 22.7 18.8 82 2.0 SSW 13 17 7 9 1012.7 1012.6 0.0
12/02:30am 22.0 23.2 19.0 83 1.9 SSW 11 17 6 9 1012.8 1012.7 0.0
12/02:00am 22.0 22.7 18.8 82 2.0 SSW 13 17 7 9 1012.9 1012.8 0.0
12/01:30am 22.1 23.3 19.1 83 1.9 S 11 15 6 8 1013.0 1012.9 0.0
12/01:00am 22.1 23.2 18.9 82 2.0 SSW 11 15 6 8 1013.3 1013.2 0.0
12/12:30am 22.4 23.7 19.2 82 2.0 SSW 11 17 6 9 1013.5 1013.4 0.0
12/12:00am 22.7 23.9 19.1 80 2.3 S 11 15 6 8 1013.7 1013.6 0.0
 
Date/Time
EDT
Temp
°C
App
Temp
°C
Dew
Point
Rel
Hum
%
Delta-T
°C
Wind Press
QNH
hPa
Press
MSL
hPa
Rain
since 9 am
mm
Dir
 
Spd
km/h
Gust
km/h
Spd
kts
Gust
kts
11/11:30pm 24.0 24.1 19.1 74 3.1 SE 17 24 9 13 1013.9 1013.8 0.0
11/11:00pm 24.3 24.5 19.4 74 3.1 SE 17 24 9 13 1013.9 1013.8 0.0
11/10:30pm 23.2 24.7 18.9 77 2.7 SSE 9 19 5 10 1013.8 1013.7 0.0
11/10:00pm 22.8 24.3 18.8 78 2.5 SSE 9 15 5 8 1013.9 1013.8 0.0
11/09:30pm 23.0 24.3 18.5 76 2.8 S 9 13 5 7 1013.8 1013.7 0.0
11/09:00pm 23.6 25.1 18.9 75 3.0 SSE 9 17 5 9 1013.6 1013.5 0.0
11/08:30pm 23.9 24.8 18.3 71 3.5 SSE 11 17 6 9 1013.4 1013.3 0.0
11/08:00pm 24.4 25.2 19.0 72 3.4 SSE 13 19 7 10 1013.2 1013.1 0.0
11/07:30pm 24.4 24.1 18.3 69 3.8 SSE 17 26 9 14 1013.1 1013.0 0.0
11/07:00pm 25.1 24.1 18.8 68 4.0 SSE 22 30 12 16 1012.7 1012.6 0.0
11/06:30pm 25.6 24.4 18.5 65 4.5 SSE 22 30 12 16 1012.3 1012.2 0.0
11/06:00pm 26.5 24.8 18.9 63 4.9 SE 26 39 14 21 1012.0 1011.9 0.0
11/05:30pm 26.3 24.3 18.4 61 5.0 SSE 26 35 14 19 1011.9 1011.8 0.0
11/05:00pm 27.4 25.4 18.4 58 5.7 SE 26 37 14 20 1011.9 1011.8 0.0
11/04:30pm 27.1 25.3 18.7 60 5.4 SSE 26 39 14 21 1011.8 1011.7 0.0
11/04:00pm 27.5 25.0 18.8 59 5.6 SE 30 39 16 21 1011.8 1011.7 0.0
11/03:30pm 28.0 26.4 19.2 58 5.7 SE 26 33 14 18 1011.9 1011.8 0.0
11/03:00pm 27.8 25.8 19.1 59 5.6 SE 28 39 15 21 1012.2 1012.1 0.0
11/02:30pm 27.2 25.6 19.3 62 5.1 SE 26 35 14 19 1012.6 1012.5 0.0
11/02:00pm 28.0 25.4 18.7 57 6.0 ESE 30 37 16 20 1012.8 1012.7 0.0
11/01:30pm 27.7 25.3 19.0 59 5.6 ESE 30 37 16 20 1013.1 1013.0 0.0
11/01:00pm 28.1 27.2 19.9 61 5.4 SSE 24 32 13 17 1013.2 1013.1 0.0
11/12:30pm 27.3 25.9 18.9 60 5.4 SE 24 35 13 19 1013.2 1013.1 0.0
11/12:00pm 27.3 26.2 19.4 62 5.1 SE 24 35 13 19 1013.4 1013.3 0.0
11/11:30am 26.0 25.0 18.9 65 4.5 SSE 22 32 12 17 1013.5 1013.4 0.0
11/11:00am 25.7 24.8 19.1 67 4.2 SE 22 30 12 16 1013.6 1013.5 0.0
11/10:30am 25.3 24.2 18.7 67 4.2 SSE 22 32 12 17 1013.5 1013.4 0.0
11/10:00am 26.2 26.5 19.6 67 4.3 SSE 17 26 9 14 1013.5 1013.4 10.0
11/09:30am 25.3 25.1 19.4 70 3.8 S 19 26 10 14 1013.4 1013.3 10.0
11/09:00am 24.8 25.4 19.4 72 3.5 S 15 26 8 14 1013.4 1013.3 10.0
11/08:30am 23.9 24.5 19.4 76 2.9 SSW 15 22 8 12 1013.3 1013.2 10.0
11/08:00am 23.0 24.8 19.6 81 2.2 SSW 9 13 5 7 1013.2 1013.1 10.0
11/07:30am 21.4 23.0 19.1 87 1.5 SSW 9 11 5 6 1012.9 1012.8 10.0
11/07:00am 20.8 22.7 18.9 89 1.2 SSW 7 11 4 6 1012.6 1012.5 10.0
11/06:30am 20.4 21.7 18.5 89 1.2 SSW 9 11 5 6 1012.3 1012.2 10.0
11/06:00am 20.4 22.2 18.7 90 1.1 SSW 7 11 4 6 1012.1 1012.0 10.0
11/05:30am 20.5 21.9 18.6 89 1.2 SSW 9 11 5 6 1011.9 1011.8 10.0
11/05:00am 20.8 22.2 18.7 88 1.3 SSW 9 13 5 7 1011.7 1011.6 10.0
11/04:30am 20.5 21.9 18.6 89 1.2 S 9 11 5 6 1011.7 1011.6 10.0
11/04:00am 20.8 22.2 18.7 88 1.3 SSW 9 13 5 7 1011.9 1011.8 10.0
11/03:30am 20.7 22.4 18.6 88 1.3 SSW 7 9 4 5 1012.1 1012.0 10.0

Other Formats:

Comma delimited format used in spreadsheet applications
http://www.bom.gov.au/fwo/IDN60801/IDN60801.94592.axf

JavaScript Object Notation format (JSON) in row-major order
http://www.bom.gov.au/fwo/IDN60801/IDN60801.94592.json